createdAt,value
2022-11-30T11:29:49.746Z,16.90
2022-11-30T11:30:00.416Z,16.90
2022-11-30T11:30:10.398Z,16.90
2022-11-30T11:30:20.408Z,16.90
2022-11-30T11:30:30.399Z,16.89
2022-11-30T11:30:40.478Z,16.88
2022-11-30T11:30:50.469Z,16.86
2022-11-30T11:31:00.412Z,16.85
2022-11-30T11:31:10.408Z,16.83
2022-11-30T11:31:20.475Z,16.81
2022-11-30T11:31:30.520Z,16.78
2022-11-30T11:31:40.393Z,16.78
2022-11-30T11:31:50.365Z,16.77
2022-11-30T11:32:00.371Z,16.77
2022-11-30T11:32:10.364Z,16.77
2022-11-30T11:32:21.334Z,16.78
2022-11-30T11:32:30.373Z,16.78
2022-11-30T11:32:40.352Z,16.77
2022-11-30T11:32:50.336Z,16.78
2022-11-30T11:33:00.339Z,16.78
2022-11-30T11:33:10.325Z,16.75
2022-11-30T11:33:20.842Z,16.77
2022-11-30T11:33:30.312Z,16.77
2022-11-30T11:33:40.331Z,16.77
2022-11-30T11:33:50.303Z,16.77
2022-11-30T11:34:00.337Z,16.78
2022-11-30T11:34:10.286Z,16.80
2022-11-30T11:34:20.294Z,16.80
2022-11-30T11:34:30.283Z,16.80
2022-11-30T11:34:40.294Z,16.80
2022-11-30T11:34:51.542Z,16.78
2022-11-30T11:35:00.250Z,16.78
2022-11-30T11:35:10.250Z,16.80
2022-11-30T11:35:20.241Z,16.80
2022-11-30T11:35:30.225Z,16.83
2022-11-30T11:35:40.241Z,16.86
2022-11-30T11:35:50.264Z,16.86
2022-11-30T11:37:20.121Z,17.30
2022-11-30T11:37:30.111Z,-39.76
2022-11-30T11:37:40.091Z,-39.76
2022-11-30T11:37:50.080Z,-39.76
2022-11-30T11:38:00.077Z,-39.76
2022-11-30T11:38:10.096Z,-39.76
2022-11-30T11:38:20.045Z,-39.76
2022-11-30T11:38:30.040Z,-39.76
2022-11-30T11:38:40.017Z,-39.76
2022-11-30T11:38:50.011Z,-39.76
2022-11-30T11:39:00.001Z,-39.76
2022-11-30T11:39:10.050Z,-39.76
2022-11-30T11:39:19.979Z,-39.76
2022-11-30T11:39:29.955Z,-39.76
2022-11-30T11:39:39.951Z,-39.76
2022-11-30T11:39:50.088Z,-39.76
2022-11-30T11:39:59.914Z,-39.76
